Time;durP1;ratioP1;P1;durP2;ratioP2;P2;SDS_P1;SDS_P2;PMS_P1;PMS_P2;Temp;Humidity;BMP_temperature;BMP_pressure;BME280_temperature;BME280_humidity;BME280_pressure;Samples;Min_cycle;Max_cycle;Signal;HPM_P1;HPM_P2
2022/02/07 00:00:06;;;;;;;17.80;10.68;;;;;;;2.80;71.20;98622.14;1675539;83;21049;-76
2022/02/07 00:02:35;;;;;;;15.28;10.05;;;;;;;2.82;71.25;98621.92;1713726;82;21560;-73
2022/02/07 00:04:55;;;;;;;16.77;10.35;;;;;;;2.82;71.13;98621.92;1694878;83;21119;-73
2022/02/07 00:07:22;;;;;;;13.05;9.03;;;;;;;2.78;71.14;98618.88;1714885;83;21312;-72
2022/02/07 00:09:49;;;;;;;10.90;8.10;;;;;;;2.73;71.28;98619.30;1713157;82;20941;-73
2022/02/07 00:12:17;;;;;;;9.20;7.40;;;;;;;2.71;71.44;98616.04;1694232;84;21615;-72
2022/02/07 00:14:46;;;;;;;10.18;7.65;;;;;;;2.68;71.54;98605.38;1706416;84;21042;-72
2022/02/07 00:17:14;;;;;;;10.10;7.45;;;;;;;2.70;71.63;98605.13;1640194;86;21393;-72
2022/02/07 00:19:40;;;;;;;11.85;8.05;;;;;;;2.68;71.61;98612.01;1672098;84;21260;-73
2022/02/07 00:22:07;;;;;;;12.15;8.70;;;;;;;2.64;71.73;98604.17;1706802;84;21017;-71
2022/02/07 00:24:35;;;;;;;9.78;7.35;;;;;;;2.56;71.85;98593.38;1692551;84;21533;-75
2022/02/07 00:27:01;;;;;;;10.68;8.60;;;;;;;2.54;71.96;98589.34;1693987;84;20961;-72
2022/02/07 00:29:28;;;;;;;9.25;6.90;;;;;;;2.49;72.08;98588.69;1694238;84;21103;-74
2022/02/07 00:31:54;;;;;;;9.40;6.92;;;;;;;2.48;72.13;98591.55;1706663;84;21522;-74
2022/02/07 00:34:21;;;;;;;11.65;7.65;;;;;;;2.47;72.26;98584.63;1693988;84;21000;-73
2022/02/07 00:36:47;;;;;;;8.43;6.20;;;;;;;2.45;72.31;98583.51;1706706;83;20938;-73
2022/02/07 00:39:21;;;;;;;10.63;7.95;;;;;;;2.44;72.46;98577.94;1686088;84;22243;-74
2022/02/07 00:41:50;;;;;;;7.85;6.45;;;;;;;2.43;72.53;98572.84;1660052;86;21081;-73
2022/02/07 00:44:16;;;;;;;10.90;7.87;;;;;;;2.39;72.63;98567.19;1672704;84;21126;-73
2022/02/07 00:46:49;;;;;;;8.35;6.90;;;;;;;2.35;72.80;98565.20;1706361;84;22200;-74
2022/02/07 00:49:11;;;;;;;10.50;8.20;;;;;;;2.33;72.92;98557.46;1693234;84;20953;-74
2022/02/07 00:51:38;;;;;;;10.18;7.90;;;;;;;2.31;73.02;98561.36;1686084;84;20962;-74
2022/02/07 00:54:05;;;;;;;11.60;7.45;;;;;;;2.27;73.29;98561.52;1694618;84;21112;-76
2022/02/07 00:56:32;;;;;;;13.48;8.13;;;;;;;2.21;73.47;98557.91;1706422;84;21063;-74
2022/02/07 00:58:59;;;;;;;13.80;8.80;;;;;;;2.17;73.71;98558.88;1694309;84;20988;-74
2022/02/07 01:01:27;;;;;;;10.15;7.95;;;;;;;2.14;73.83;98550.06;1706322;84;21589;-75
2022/02/07 01:03:54;;;;;;;12.13;7.30;;;;;;;2.12;73.99;98542.83;1672111;84;21545;-74
2022/02/07 01:06:23;;;;;;;9.25;7.50;;;;;;;2.11;74.02;98546.51;1644118;86;21117;-75
2022/02/07 01:09:05;;;;;;;12.88;9.05;;;;;;;2.11;74.13;98538.55;1678690;85;21158;-72
2022/02/07 01:11:52;;;;;;;13.80;8.08;;;;;;;2.08;74.22;98543.50;1682965;84;20995;-73
2022/02/07 01:14:14;;;;;;;13.10;7.42;;;;;;;2.10;74.22;98534.82;1702715;84;21486;-74
2022/02/07 01:47:24;;;;;;;13.18;10.30;;;;;;;2.06;75.35;98449.58;1680684;83;21550;-74
2022/02/07 01:54:59;;;;;;;10.85;8.15;;;;;;;1.98;75.84;98438.49;1713221;82;21002;-73
2022/02/07 01:57:16;;;;;;;11.03;8.60;;;;;;;1.95;76.09;98432.33;1710959;82;21554;-74
2022/02/07 01:59:45;;;;;;;11.20;7.97;;;;;;;1.94;76.28;98426.73;1705156;82;21003;-76
2022/02/07 02:02:12;;;;;;;11.00;7.58;;;;;;;1.97;76.31;98426.27;1718563;82;21158;-74
2022/02/07 02:04:38;;;;;;;10.65;8.05;;;;;;;1.96;76.34;98418.05;1731698;82;21011;-74
2022/02/07 02:07:06;;;;;;;8.90;7.33;;;;;;;1.95;76.41;98417.75;1721494;82;20979;-74
2022/02/07 02:09:32;;;;;;;14.18;7.67;;;;;;;1.94;76.50;98414.80;1728903;82;21014;-76
2022/02/07 02:12:04;;;;;;;9.73;7.40;;;;;;;1.94;76.60;98416.94;1669910;83;21001;-74
2022/02/07 02:38:24;;;;;;;13.32;8.68;;;;;;;1.93;76.87;98386.66;1701966;83;21047;-77
2022/02/07 02:46:21;;;;;;;12.37;7.42;;;;;;;2.06;76.20;98384.63;1715566;82;21580;-77
2022/02/07 02:48:45;;;;;;;9.45;7.28;;;;;;;2.12;75.69;98378.42;1727259;81;20991;-72
2022/02/07 02:51:12;;;;;;;7.92;6.67;;;;;;;2.18;75.47;98376.19;1698215;84;21057;-74
2022/02/07 02:53:39;;;;;;;11.33;6.50;;;;;;;2.24;75.23;98370.50;1726886;82;21119;-79
2022/02/07 02:56:05;;;;;;;11.53;7.25;;;;;;;2.29;74.66;98371.95;1702094;83;20999;-77
2022/02/07 02:58:40;;;;;;;10.13;7.55;;;;;;;2.35;74.33;98365.70;1675286;85;21056;-78
2022/02/07 03:01:09;;;;;;;9.48;6.45;;;;;;;2.40;74.10;98367.15;1697956;84;20975;-78
2022/02/07 03:03:41;;;;;;;8.63;7.25;;;;;;;2.47;73.80;98369.19;1663790;86;21017;-78
2022/02/07 03:06:09;;;;;;;8.15;6.33;;;;;;;2.50;73.35;98358.62;1698254;83;21527;-80
2022/02/07 03:08:38;;;;;;;7.90;6.50;;;;;;;2.53;73.37;98355.52;1668836;84;21549;-81
2022/02/07 03:11:11;;;;;;;6.65;5.95;;;;;;;2.57;73.22;98348.20;1706859;83;21033;-84
2022/02/07 03:13:47;;;;;;;7.45;6.10;;;;;;;2.61;72.84;98346.69;1695279;84;21090;-76
2022/02/07 03:18:47;;;;;;;10.08;6.92;;;;;;;2.69;72.54;98337.55;1689785;84;21559;-76
2022/02/07 03:21:13;;;;;;;9.15;7.62;;;;;;;2.72;72.38;98341.61;1702042;83;21578;-75
2022/02/07 03:23:40;;;;;;;7.15;6.45;;;;;;;2.77;72.26;98355.80;1726780;83;20996;-75
2022/02/07 03:26:07;;;;;;;7.08;6.15;;;;;;;2.80;71.98;98361.16;1686120;83;21043;-78
2022/02/07 03:28:33;;;;;;;8.45;6.45;;;;;;;2.78;71.68;98353.96;1693161;84;20930;-79
2022/02/07 03:31:02;;;;;;;6.92;6.15;;;;;;;2.80;71.94;98354.00;1698799;83;21802;-76
2022/02/07 03:33:29;;;;;;;8.08;6.17;;;;;;;2.84;72.29;98356.47;1728641;81;20931;-75
2022/02/07 03:35:56;;;;;;;6.10;5.50;;;;;;;2.84;72.75;98342.39;1701970;83;21491;-76
2022/02/07 03:38:24;;;;;;;7.50;6.75;;;;;;;2.84;73.19;98349.84;1678827;83;21026;-75
2022/02/07 03:40:51;;;;;;;7.62;6.85;;;;;;;2.81;73.52;98348.17;1727267;83;21015;-74
2022/02/07 03:43:18;;;;;;;7.20;6.42;;;;;;;2.81;73.80;98320.30;1726571;82;21155;-78
2022/02/07 03:45:44;;;;;;;7.75;6.47;;;;;;;2.80;73.99;98329.30;1701885;83;21068;-78
2022/02/07 03:48:12;;;;;;;6.45;5.83;;;;;;;2.79;74.17;98327.67;1701811;83;21016;-81
2022/02/07 03:50:39;;;;;;;7.33;6.55;;;;;;;2.79;74.29;98325.83;1727145;82;21584;-78
2022/02/07 03:53:05;;;;;;;10.78;7.33;;;;;;;2.79;74.42;98323.18;1706421;83;21029;-76
2022/02/07 03:55:34;;;;;;;12.73;8.33;;;;;;;2.78;74.48;98320.23;1725538;83;21117;-74
2022/02/07 03:58:02;;;;;;;10.03;7.58;;;;;;;2.78;74.57;98320.23;1726612;83;21076;-77
2022/02/07 04:00:31;;;;;;;10.10;9.03;;;;;;;2.76;74.56;98310.90;1726832;82;21096;-75
2022/02/07 04:03:13;;;;;;;9.38;7.40;;;;;;;2.77;74.60;98297.92;1702010;83;20949;-74
2022/02/07 04:05:53;;;;;;;10.65;7.35;;;;;;;2.77;74.53;98304.56;1726372;83;21024;-74
2022/02/07 04:08:20;;;;;;;8.73;7.15;;;;;;;2.76;74.42;98298.44;1731642;81;21481;-78
2022/02/07 04:13:31;;;;;;;10.90;7.78;;;;;;;2.82;74.24;98288.73;1726121;83;21080;-76
2022/02/07 04:16:00;;;;;;;6.95;5.80;;;;;;;2.85;74.08;98277.64;1701842;83;21060;-74
2022/02/07 04:18:30;;;;;;;10.03;7.28;;;;;;;2.85;73.97;98273.14;1677210;83;21086;-77
2022/02/07 04:20:56;;;;;;;7.17;6.47;;;;;;;2.82;73.85;98273.62;1723958;83;21901;-78
2022/02/07 04:23:24;;;;;;;7.40;6.60;;;;;;;2.81;73.90;98269.86;1701633;83;21045;-74
2022/02/07 04:25:59;;;;;;;8.75;5.90;;;;;;;2.77;73.88;98274.84;1723478;80;20980;-74
2022/02/07 04:28:26;;;;;;;7.42;6.15;;;;;;;2.78;73.95;98268.47;1695904;83;21018;-76
2022/02/07 04:30:53;;;;;;;7.20;6.25;;;;;;;2.80;73.97;98272.22;1726103;81;21535;-76
2022/02/07 04:33:21;;;;;;;8.53;6.65;;;;;;;2.78;73.83;98267.14;1701681;83;22240;-77
2022/02/07 04:35:49;;;;;;;7.83;6.60;;;;;;;2.77;73.77;98260.24;1708615;82;21030;-80
2022/02/07 04:38:16;;;;;;;9.65;6.12;;;;;;;2.77;73.70;98258.11;1727353;81;21546;-82
2022/02/07 04:40:44;;;;;;;10.75;6.37;;;;;;;2.74;73.45;98253.24;1708358;83;20949;-80
2022/02/07 04:43:13;;;;;;;6.90;6.20;;;;;;;2.76;73.58;98255.16;1726612;83;21062;-80
2022/02/07 04:45:50;;;;;;;9.18;6.22;;;;;;;2.79;73.47;98261.31;1708367;83;21841;-82
2022/02/07 04:50:54;;;;;;;7.40;6.42;;;;;;;2.82;73.16;98252.91;1685668;84;21530;-85
2022/02/07 05:03:39;;;;;;;11.88;7.92;;;;;;;2.70;72.69;98242.81;1725573;82;21052;-85
2022/02/07 05:14:18;;;;;;;9.10;7.33;;;;;;;2.60;72.92;98246.06;1682291;84;21466;-72
2022/02/07 05:16:48;;;;;;;8.73;7.40;;;;;;;2.57;72.76;98248.69;1701821;83;21047;-72
2022/02/07 05:19:15;;;;;;;8.83;7.85;;;;;;;2.57;72.66;98247.87;1684793;84;21038;-72
2022/02/07 05:21:48;;;;;;;6.85;6.12;;;;;;;2.60;72.51;98240.76;1726708;82;21046;-71
2022/02/07 05:24:19;;;;;;;8.77;7.43;;;;;;;2.64;72.35;98254.66;1652788;84;21869;-70
2022/02/07 05:26:56;;;;;;;7.05;5.62;;;;;;;2.63;72.14;98249.08;1709079;83;21442;-69
2022/02/07 05:29:42;;;;;;;8.83;6.25;;;;;;;2.67;72.04;98257.89;1726726;83;21049;-69
2022/02/07 05:32:17;;;;;;;9.60;6.90;;;;;;;2.67;71.83;98260.03;1640545;84;21561;-73
2022/02/07 05:34:52;;;;;;;7.33;6.03;;;;;;;2.71;71.85;98269.66;1709230;83;21050;-75
2022/02/07 05:37:34;;;;;;;7.35;5.87;;;;;;;2.76;71.85;98257.81;1658961;84;21101;-74
2022/02/07 05:40:12;;;;;;;9.83;7.65;;;;;;;2.78;71.83;98256.52;1695338;84;20974;-73
2022/02/07 05:42:52;;;;;;;7.58;6.58;;;;;;;2.76;72.25;98250.66;1599429;89;21082;-73
2022/02/07 05:45:28;;;;;;;6.92;6.25;;;;;;;2.74;72.87;98259.88;1673824;84;21035;-74
2022/02/07 05:47:59;;;;;;;9.48;7.37;;;;;;;2.70;73.31;98256.89;1704534;83;20999;-73
2022/02/07 05:50:39;;;;;;;9.35;6.92;;;;;;;2.74;73.82;98258.55;1723789;82;21101;-71
2022/02/07 05:53:25;;;;;;;9.08;5.83;;;;;;;2.76;74.32;98249.33;1695670;83;20969;-74
2022/02/07 05:56:07;;;;;;;7.00;6.05;;;;;;;2.78;75.11;98247.78;1668930;84;21569;-72
2022/02/07 05:58:35;;;;;;;9.33;6.62;;;;;;;2.78;75.42;98249.11;1695563;83;21035;-76
2022/02/07 06:01:12;;;;;;;7.45;5.97;;;;;;;2.79;76.04;98248.04;1724352;81;21033;-73
2022/02/07 06:03:41;;;;;;;7.92;6.72;;;;;;;2.78;76.83;98246.45;1694864;83;21175;-72
2022/02/07 06:06:09;;;;;;;10.60;6.85;;;;;;;2.71;77.41;98243.92;1673949;84;21034;-71
2022/02/07 06:08:38;;;;;;;6.97;6.28;;;;;;;2.72;77.75;98245.54;1684149;83;20950;-70
2022/02/07 06:11:11;;;;;;;7.60;5.83;;;;;;;2.73;78.49;98242.37;1726512;83;21591;-71
2022/02/07 06:13:39;;;;;;;7.15;6.20;;;;;;;2.73;78.72;98256.45;1708107;84;21026;-73
2022/02/07 06:16:08;;;;;;;8.70;7.40;;;;;;;2.73;79.47;98235.22;1726551;82;21115;-72
2022/02/07 06:18:34;;;;;;;8.63;6.42;;;;;;;2.72;79.65;98242.88;1685791;84;21024;-72
2022/02/07 06:21:04;;;;;;;10.00;6.75;;;;;;;2.74;80.09;98241.30;1686493;84;21553;-72
2022/02/07 06:23:31;;;;;;;9.90;7.10;;;;;;;2.74;80.77;98238.64;1726786;83;21334;-70
2022/02/07 06:25:59;;;;;;;9.45;6.70;;;;;;;2.70;80.91;98232.20;1701834;83;21082;-73
2022/02/07 06:28:27;;;;;;;9.45;6.33;;;;;;;2.71;81.48;98232.49;1708409;82;22304;-70
2022/02/07 06:30:56;;;;;;;11.08;8.05;;;;;;;2.75;82.07;98230.97;1726709;83;20947;-71
2022/02/07 06:33:22;;;;;;;8.63;7.00;;;;;;;2.77;82.50;98223.59;1726646;82;20981;-72
2022/02/07 06:35:52;;;;;;;8.85;6.95;;;;;;;2.80;83.05;98217.80;1696281;83;20964;-73
2022/02/07 06:38:21;;;;;;;10.00;7.37;;;;;;;2.85;83.45;98225.36;1727062;82;21013;-72
2022/02/07 06:40:49;;;;;;;9.15;7.15;;;;;;;2.89;83.64;98220.37;1683905;84;21916;-71
2022/02/07 06:43:16;;;;;;;12.65;8.00;;;;;;;2.87;83.79;98219.81;1697905;84;21059;-72
2022/02/07 06:45:43;;;;;;;11.15;8.95;;;;;;;2.85;84.21;98215.25;1697793;84;21035;-73
2022/02/07 06:48:09;;;;;;;9.58;8.33;;;;;;;2.84;84.66;98213.62;1677737;84;21049;-71
2022/02/07 06:50:37;;;;;;;9.33;7.62;;;;;;;2.85;84.96;98205.44;1711932;83;21002;-71
2022/02/07 06:53:05;;;;;;;8.75;7.47;;;;;;;2.89;85.38;98204.44;1708489;83;21083;-76
2022/02/07 06:55:33;;;;;;;11.00;7.65;;;;;;;2.95;85.77;98204.83;1708203;83;21009;-74
2022/02/07 06:58:00;;;;;;;11.38;8.48;;;;;;;2.99;85.90;98199.32;1686569;84;21009;-73
2022/02/07 07:00:26;;;;;;;12.03;10.00;;;;;;;2.99;86.11;98201.45;1708292;84;21002;-74
2022/02/07 07:02:56;;;;;;;14.03;8.73;;;;;;;2.97;86.25;98194.23;1726976;83;20991;-73
2022/02/07 07:05:23;;;;;;;8.63;7.50;;;;;;;2.98;86.53;98207.81;1726523;83;21169;-72
2022/02/07 07:07:52;;;;;;;14.75;9.70;;;;;;;2.94;86.78;98196.05;1702116;83;21633;-72
2022/02/07 07:10:20;;;;;;;12.33;7.10;;;;;;;2.92;87.21;98202.14;1685753;84;21072;-71
2022/02/07 07:12:57;;;;;;;11.57;8.55;;;;;;;2.95;87.21;98203.50;1708205;83;21037;-72
2022/02/07 07:15:29;;;;;;;10.53;7.75;;;;;;;2.98;87.34;98214.97;1726146;83;21030;-72
2022/02/07 07:17:48;;;;;;;10.90;8.00;;;;;;;3.04;87.29;98229.95;1725315;83;22009;-71
2022/02/07 07:20:15;;;;;;;11.43;7.78;;;;;;;3.08;87.25;98228.44;1697049;84;21082;-71
2022/02/07 07:22:44;;;;;;;9.40;8.40;;;;;;;3.12;87.20;98226.91;1697730;83;20958;-72
2022/02/07 07:25:16;;;;;;;10.18;8.35;;;;;;;3.12;86.99;98224.80;1721371;82;21466;-71
2022/02/07 07:28:00;;;;;;;13.13;8.05;;;;;;;3.12;86.95;98223.48;1727197;82;21104;-72
2022/02/07 07:30:28;;;;;;;11.78;8.03;;;;;;;3.12;86.95;98227.46;1726728;83;21127;-74
2022/02/07 07:33:01;;;;;;;12.28;9.33;;;;;;;3.14;86.96;98222.70;1701702;82;21045;-72
2022/02/07 07:35:22;;;;;;;15.23;9.33;;;;;;;3.18;87.10;98213.20;1672972;84;21549;-71
2022/02/07 07:37:49;;;;;;;18.25;9.20;;;;;;;3.19;86.91;98214.31;1726760;83;21022;-72
2022/02/07 07:40:16;;;;;;;13.78;10.80;;;;;;;3.17;86.87;98228.33;1698059;84;21042;-72
2022/02/07 07:42:51;;;;;;;12.80;9.70;;;;;;;3.16;86.95;98206.83;1686147;84;21312;-70
2022/02/07 07:45:17;;;;;;;18.30;10.00;;;;;;;3.14;87.06;98204.11;1698464;83;28142;-69
2022/02/07 07:47:49;;;;;;;13.28;10.30;;;;;;;3.09;87.26;98204.82;1725275;83;21130;-70
2022/02/07 07:50:55;;;;;;;13.30;9.35;;;;;;;3.12;87.51;98202.23;1696084;84;21064;-71
2022/02/07 07:53:30;;;;;;;15.60;10.28;;;;;;;3.07;87.90;98206.90;1725632;82;21042;-70
2022/02/07 08:01:42;;;;;;;10.08;9.05;;;;;;;3.14;88.10;98200.13;1727002;83;21006;-70
2022/02/07 08:03:57;;;;;;;15.85;9.95;;;;;;;3.16;88.19;98196.72;1724631;83;20970;-71
2022/02/07 08:06:29;;;;;;;13.72;10.50;;;;;;;3.16;88.34;98194.06;1702294;83;20957;-69
2022/02/07 08:09:18;;;;;;;11.43;9.78;;;;;;;3.12;88.47;98196.92;1695997;84;21648;-73
2022/02/07 08:11:32;;;;;;;11.35;8.53;;;;;;;3.06;88.83;98192.84;1718681;83;21027;-71
2022/02/07 08:14:00;;;;;;;13.60;8.90;;;;;;;3.09;88.85;98186.23;1708017;83;21082;-70
2022/02/07 08:16:28;;;;;;;9.35;8.08;;;;;;;3.14;89.00;98187.66;1706424;83;21538;-73
2022/02/07 08:18:59;;;;;;;11.12;8.63;;;;;;;3.18;89.02;98184.80;1707928;83;21535;-73
2022/02/07 08:21:23;;;;;;;11.10;8.05;;;;;;;3.21;88.70;98191.50;1706044;83;21164;-71
2022/02/07 08:23:49;;;;;;;10.08;8.08;;;;;;;3.21;88.49;98192.31;1707937;84;20975;-70
2022/02/07 08:26:16;;;;;;;12.30;10.18;;;;;;;3.22;88.49;98197.07;1706547;83;21540;-73
2022/02/07 08:28:42;;;;;;;16.70;9.43;;;;;;;3.21;88.11;98196.30;1706320;84;21053;-72
2022/02/07 08:31:09;;;;;;;15.10;9.45;;;;;;;3.23;88.05;98199.50;1708194;83;21061;-72
2022/02/07 08:33:35;;;;;;;11.88;7.75;;;;;;;3.25;87.82;98189.45;1706670;84;21549;-72
2022/02/07 08:36:05;;;;;;;9.65;8.33;;;;;;;3.29;87.66;98197.22;1687332;84;21475;-74
2022/02/07 08:38:30;;;;;;;10.53;8.00;;;;;;;3.31;87.39;98186.36;1687699;84;20949;-72
2022/02/07 08:40:56;;;;;;;14.68;6.90;;;;;;;3.34;87.40;98187.20;1706139;84;21060;-74
2022/02/07 08:43:23;;;;;;;10.43;8.35;;;;;;;3.31;87.41;98187.70;1687693;84;21544;-73
2022/02/07 08:45:49;;;;;;;13.80;8.58;;;;;;;3.27;87.70;98179.89;1707903;83;21088;-70
2022/02/07 08:48:16;;;;;;;10.25;6.92;;;;;;;3.23;88.06;98172.94;1708159;83;20985;-72
2022/02/07 08:50:44;;;;;;;15.03;8.88;;;;;;;3.16;88.57;98178.13;1708003;84;21048;-73
2022/02/07 08:53:11;;;;;;;32.60;12.13;;;;;;;3.15;88.76;98175.99;1708003;84;21075;-74
2022/02/07 08:55:41;;;;;;;16.77;9.48;;;;;;;3.19;88.96;98170.48;1707104;82;21022;-72
2022/02/07 08:58:18;;;;;;;11.85;8.90;;;;;;;3.26;88.98;98176.98;1678421;84;21144;-71
2022/02/07 09:00:53;;;;;;;12.37;9.20;;;;;;;3.26;88.75;98171.66;1693231;82;21006;-74
2022/02/07 09:06:05;;;;;;;10.45;6.58;;;;;;;3.18;88.58;98172.84;1687558;84;21019;-76
2022/02/07 09:08:25;;;;;;;8.58;6.80;;;;;;;3.18;88.11;98169.38;1704355;83;21113;-76
2022/02/07 09:10:50;;;;;;;11.73;8.35;;;;;;;3.20;88.03;98163.31;1706155;83;21764;-79
2022/02/07 09:13:17;;;;;;;9.23;6.75;;;;;;;3.26;88.13;98171.11;1719010;83;20998;-75
2022/02/07 09:16:01;;;;;;;8.90;6.67;;;;;;;3.35;87.84;98164.91;1712009;83;20965;-77
2022/02/07 09:18:12;;;;;;;12.30;7.53;;;;;;;3.42;87.31;98161.55;1708580;82;21040;-75
2022/02/07 09:20:43;;;;;;;9.05;6.25;;;;;;;3.47;87.21;98163.78;1719418;83;21038;-75
2022/02/07 09:23:11;;;;;;;10.80;7.42;;;;;;;3.55;86.86;98173.73;1700280;83;21110;-75
2022/02/07 09:25:39;;;;;;;13.15;7.72;;;;;;;3.56;86.38;98169.48;1756946;80;20916;-77
2022/02/07 09:28:05;;;;;;;14.38;7.05;;;;;;;3.55;85.99;98164.44;1720502;82;20991;-77
2022/02/07 09:30:32;;;;;;;10.53;6.17;;;;;;;3.57;85.88;98171.11;1697705;83;21040;-79
2022/02/07 09:32:58;;;;;;;9.48;7.00;;;;;;;3.58;85.69;98164.75;1728851;82;21082;-75
2022/02/07 09:35:25;;;;;;;12.70;7.55;;;;;;;3.55;85.04;98161.78;1737975;81;21057;-75
2022/02/07 09:37:53;;;;;;;7.78;6.97;;;;;;;3.51;85.20;98158.77;1720059;83;20951;-77
2022/02/07 09:56:39;;;;;;;10.03;7.87;;;;;;;4.00;82.76;98137.70;1712360;82;27281;-75
2022/02/07 09:59:05;;;;;;;9.40;7.53;;;;;;;3.93;82.67;98133.34;1668552;85;21007;-77
2022/02/07 10:01:36;;;;;;;8.50;6.92;;;;;;;3.88;82.53;98143.14;1645175;85;21859;-84
2022/02/07 10:04:08;;;;;;;10.25;7.20;;;;;;;3.89;82.64;98143.39;1651692;85;21012;-79
2022/02/07 10:09:24;;;;;;;15.60;8.48;;;;;;;3.88;82.41;98144.47;1665891;85;21058;-78
2022/02/07 10:14:51;;;;;;;12.00;7.22;;;;;;;3.83;82.16;98140.41;1672469;85;21989;-81
2022/02/07 10:18:01;;;;;;;15.53;9.23;;;;;;;3.83;82.61;98152.37;1632607;85;20971;-84
2022/02/07 10:19:55;;;;;;;9.93;6.87;;;;;;;3.83;82.61;98152.37;1650983;84;21536;-77
2022/02/07 10:44:47;;;;;;;10.95;9.40;;;;;;;4.53;79.35;98184.43;1729811;80;41243;-74
2022/02/07 10:47:24;;;;;;;13.55;10.48;;;;;;;4.54;78.96;98183.91;1715776;83;21346;-81
2022/02/07 11:03:25;;;;;;;11.60;10.30;;;;;;;4.10;78.20;98171.09;1858739;72;28102;-78
2022/02/07 11:05:58;;;;;;;11.18;9.23;;;;;;;4.01;78.37;98172.03;1833648;78;21182;-77
2022/02/07 11:08:36;;;;;;;17.87;11.88;;;;;;;4.00;78.60;98177.06;1804169;77;21102;-79
2022/02/07 11:19:06;;;;;;;13.90;10.08;;;;;;;3.97;79.15;98166.93;1760305;80;21015;-82
2022/02/07 11:21:41;;;;;;;18.98;11.15;;;;;;;3.93;79.01;98162.60;1835774;78;21264;-85
2022/02/07 11:24:53;;;;;;;15.98;11.50;;;;;;;3.88;79.33;98154.58;1836278;78;22218;-86
2022/02/07 11:27:36;;;;;;;14.70;11.08;;;;;;;3.86;79.46;98150.02;1834470;78;20987;-85
2022/02/07 11:30:12;;;;;;;15.68;13.22;;;;;;;3.81;79.44;98146.48;1809143;78;21003;-86
2022/02/07 11:32:48;;;;;;;17.10;11.78;;;;;;;3.82;79.53;98136.13;1809890;78;21055;-83
2022/02/07 11:35:31;;;;;;;15.08;11.12;;;;;;;3.85;79.62;98134.30;1837605;78;21121;-83
2022/02/07 11:38:11;;;;;;;15.18;10.93;;;;;;;3.88;79.42;98125.85;1837152;78;20944;-83
2022/02/07 11:41:01;;;;;;;14.00;10.50;;;;;;;3.88;79.40;98126.66;1806887;78;20928;-81
2022/02/07 11:43:36;;;;;;;12.80;10.75;;;;;;;3.89;79.49;98122.12;1804918;78;21022;-86
2022/02/07 11:46:09;;;;;;;12.65;9.50;;;;;;;3.85;79.33;98115.69;1804579;78;21484;-84
2022/02/07 11:48:48;;;;;;;12.25;10.35;;;;;;;3.84;79.50;98098.11;1772146;80;21293;-76
2022/02/07 11:51:26;;;;;;;16.73;10.50;;;;;;;3.76;79.50;98082.08;1796569;79;20952;-87
2022/02/07 11:53:59;;;;;;;16.65;10.60;;;;;;;3.62;80.02;98093.30;1774054;79;20955;-80
2022/02/07 11:56:36;;;;;;;13.33;10.27;;;;;;;3.58;80.25;98083.69;1819086;78;20916;-81
2022/02/07 11:59:25;;;;;;;12.53;10.08;;;;;;;3.62;80.34;98070.18;1803725;79;21057;-81
2022/02/07 12:02:04;;;;;;;12.37;9.53;;;;;;;3.67;80.11;98074.77;1772334;78;21623;-81
2022/02/07 12:04:39;;;;;;;28.65;17.77;;;;;;;3.69;80.04;98064.18;1756773;80;20996;-80
2022/02/07 12:07:23;;;;;;;12.88;11.15;;;;;;;3.68;79.95;98065.75;1756940;81;20928;-80
2022/02/07 12:12:44;;;;;;;13.35;8.70;;;;;;;3.67;80.08;98081.41;1766730;80;20993;-77
2022/02/07 12:15:33;;;;;;;16.70;9.68;;;;;;;3.73;79.99;98089.74;1787904;80;21123;-84
2022/02/07 12:17:58;;;;;;;14.23;9.43;;;;;;;3.78;79.94;98087.96;1787151;80;20964;-81
2022/02/07 12:20:34;;;;;;;14.73;10.70;;;;;;;3.86;79.65;98088.05;1787782;80;21457;-79
2022/02/07 12:23:17;;;;;;;11.20;8.98;;;;;;;3.88;79.35;98103.25;1788420;80;21483;-80
2022/02/07 12:25:56;;;;;;;14.87;9.75;;;;;;;3.90;79.33;98111.77;1755185;81;21016;-84
2022/02/07 12:33:47;;;;;;;10.72;8.43;;;;;;;4.00;78.83;98139.83;1752434;81;20968;-81
2022/02/07 12:36:13;;;;;;;14.28;9.68;;;;;;;4.15;78.32;98147.22;1769172;80;20944;-76
2022/02/07 12:38:42;;;;;;;10.90;8.68;;;;;;;4.44;77.31;98138.53;1784752;80;21009;-75
2022/02/07 12:41:11;;;;;;;14.95;9.85;;;;;;;4.44;77.31;98138.53;1769844;80;21217;-76
2022/02/07 12:43:39;;;;;;;12.35;9.30;;;;;;;4.51;77.06;98142.59;1764963;80;20921;-82
2022/02/07 12:46:10;;;;;;;9.88;8.60;;;;;;;4.56;76.56;98133.87;1785173;80;20972;-81
2022/02/07 12:48:42;;;;;;;13.62;10.10;;;;;;;4.67;76.48;98136.41;1771835;80;21480;-88
2022/02/07 12:51:06;;;;;;;14.23;10.38;;;;;;;4.67;76.48;98136.41;1756857;80;20984;-82
2022/02/07 12:53:34;;;;;;;14.83;10.48;;;;;;;4.68;76.16;98137.21;1755953;81;21255;-78
2022/02/07 12:56:02;;;;;;;14.98;11.15;;;;;;;4.78;76.35;98157.30;1734148;81;20987;-77
2022/02/07 12:58:34;;;;;;;13.13;10.50;;;;;;;4.92;76.33;98149.72;1756491;81;21057;-77
2022/02/07 13:01:30;;;;;;;13.75;11.48;;;;;;;5.04;75.69;98143.17;1736580;81;20948;-79
2022/02/07 13:04:05;;;;;;;16.17;13.88;;;;;;;5.19;75.14;98133.98;1765644;79;21027;-77
2022/02/07 13:06:41;;;;;;;14.00;10.90;;;;;;;5.33;74.86;98142.36;1745881;81;21064;-82
2022/02/07 13:09:28;;;;;;;20.55;13.43;;;;;;;5.35;74.11;98133.60;1772175;81;21483;-80
2022/02/07 13:12:14;;;;;;;15.65;12.00;;;;;;;5.33;74.25;98149.03;1769481;79;20935;-86
2022/02/07 13:14:42;;;;;;;17.17;11.53;;;;;;;5.32;75.49;98162.11;1776762;79;21003;-88
2022/02/07 13:17:09;;;;;;;18.07;13.20;;;;;;;5.46;76.08;98165.95;1791644;78;21492;-84
2022/02/07 13:19:42;;;;;;;17.60;12.75;;;;;;;5.60;75.56;98168.47;1780255;79;21148;-87
2022/02/07 13:22:10;;;;;;;16.50;12.85;;;;;;;5.64;74.00;98174.90;1803958;78;20908;-82
2022/02/07 13:24:38;;;;;;;21.25;14.70;;;;;;;5.55;73.24;98176.95;1786658;78;20967;-90
2022/02/07 13:27:11;;;;;;;20.05;14.00;;;;;;;5.54;73.61;98174.81;1775260;79;20995;-93
2022/02/07 13:29:46;;;;;;;19.90;14.45;;;;;;;5.53;73.43;98175.87;1804297;78;21523;-89
2022/02/07 13:32:20;;;;;;;23.73;14.53;;;;;;;5.55;73.18;98179.63;1798849;78;21127;-93
2022/02/07 13:34:49;;;;;;;19.27;12.80;;;;;;;5.53;73.48;98183.05;1772440;81;20960;-87
2022/02/07 13:37:29;;;;;;;18.60;14.20;;;;;;;5.63;73.84;98192.48;1746096;81;21051;-85
2022/02/07 13:40:01;;;;;;;18.55;12.33;;;;;;;5.72;73.53;98204.28;1746962;81;21273;-84
2022/02/07 13:42:45;;;;;;;20.40;12.28;;;;;;;5.79;73.13;98206.22;1785776;79;21004;-82
2022/02/07 13:45:20;;;;;;;;;;;;;;;5.82;72.88;98200.89;1806879;78;21091;-85
2022/02/07 13:47:50;;;;;;;15.20;11.12;;;;;;;5.83;72.73;98195.84;1803770;79;20077;-83
2022/02/07 13:50:27;;;;;;;19.15;13.65;;;;;;;5.80;72.61;98188.36;1785470;79;20974;-81
2022/02/07 13:52:56;;;;;;;23.20;14.47;;;;;;;5.80;72.44;98190.50;1746035;81;20943;-80
2022/02/07 13:55:35;;;;;;;16.15;11.95;;;;;;;5.80;72.62;98189.69;1772514;81;21074;-82
2022/02/07 13:58:09;;;;;;;14.15;11.48;;;;;;;5.81;72.36;98186.74;1774903;79;21187;-77
2022/02/07 14:00:39;;;;;;;19.92;14.40;;;;;;;5.76;72.34;98184.04;1777250;79;21015;-88
2022/02/07 14:03:19;;;;;;;19.95;13.45;;;;;;;5.69;72.38;98183.47;1804128;78;20987;-88
2022/02/07 14:06:00;;;;;;;21.50;14.63;;;;;;;5.61;72.56;98190.61;1777879;79;20940;-87
2022/02/07 14:08:46;;;;;;;17.48;13.43;;;;;;;5.55;72.98;98188.95;1777369;79;21020;-95
2022/02/07 14:11:20;;;;;;;15.40;11.95;;;;;;;5.52;72.98;98183.58;1801874;78;20998;-84
2022/02/07 14:13:52;;;;;;;23.57;13.47;;;;;;;5.50;73.01;98183.05;1801011;79;20950;-84
2022/02/07 14:16:21;;;;;;;18.07;12.75;;;;;;;5.43;73.13;98174.97;1772262;81;22201;-80
2022/02/07 14:18:48;;;;;;;16.82;13.22;;;;;;;5.33;73.32;98173.55;1772263;80;21598;-85
2022/02/07 14:21:18;;;;;;;25.82;17.50;;;;;;;5.24;73.64;98182.01;1745975;81;21022;-88
2022/02/07 14:23:52;;;;;;;22.62;15.58;;;;;;;5.11;73.90;98188.27;1751191;80;21103;-84
2022/02/07 14:26:21;;;;;;;18.10;13.95;;;;;;;5.05;74.36;98188.74;1772307;80;21658;-84
2022/02/07 14:28:53;;;;;;;14.47;12.15;;;;;;;5.06;74.68;98183.70;1772558;81;21512;-84
2022/02/07 14:31:23;;;;;;;13.53;11.50;;;;;;;5.11;74.62;98186.42;1772065;80;21252;-84
2022/02/07 14:33:50;;;;;;;16.57;12.95;;;;;;;5.13;74.49;98193.61;1773190;79;21658;-83
2022/02/07 14:36:20;;;;;;;17.05;13.68;;;;;;;5.07;74.52;98197.30;1802613;79;21077;-84
2022/02/07 14:38:49;;;;;;;20.52;15.18;;;;;;;5.04;74.73;98196.98;1804076;78;20881;-78
2022/02/07 14:41:18;;;;;;;15.68;13.13;;;;;;;5.04;74.75;98199.12;1802901;79;20939;-88
2022/02/07 14:43:48;;;;;;;14.35;11.30;;;;;;;5.04;74.81;98192.45;1782528;79;20928;-90